sensor_id;sensor_type;location;lat;lon;timestamp;temperature;humidity
5130;DHT22;2583;50.946;6.954;2023-08-24T00:01:55;21.60;79.80
5130;DHT22;2583;50.946;6.954;2023-08-24T00:04:21;21.60;80.30
5130;DHT22;2583;50.946;6.954;2023-08-24T00:06:49;21.60;82.90
5130;DHT22;2583;50.946;6.954;2023-08-24T00:09:16;21.60;84.10
5130;DHT22;2583;50.946;6.954;2023-08-24T00:11:42;21.60;85.70
5130;DHT22;2583;50.946;6.954;2023-08-24T00:14:09;21.60;89.10
5130;DHT22;2583;50.946;6.954;2023-08-24T00:16:37;21.60;88.40
5130;DHT22;2583;50.946;6.954;2023-08-24T00:19:04;21.50;90.90
5130;DHT22;2583;50.946;6.954;2023-08-24T00:21:31;21.50;91.30
5130;DHT22;2583;50.946;6.954;2023-08-24T00:23:57;21.50;92.00
5130;DHT22;2583;50.946;6.954;2023-08-24T00:26:26;21.40;93.20
5130;DHT22;2583;50.946;6.954;2023-08-24T00:28:53;21.40;93.70
5130;DHT22;2583;50.946;6.954;2023-08-24T00:31:19;21.40;94.80
5130;DHT22;2583;50.946;6.954;2023-08-24T00:33:46;21.30;95.70
5130;DHT22;2583;50.946;6.954;2023-08-24T00:36:13;21.30;97.00
5130;DHT22;2583;50.946;6.954;2023-08-24T00:38:40;21.30;98.40
5130;DHT22;2583;50.946;6.954;2023-08-24T00:41:07;21.30;97.80
5130;DHT22;2583;50.946;6.954;2023-08-24T00:43:34;21.30;97.50
5130;DHT22;2583;50.946;6.954;2023-08-24T00:46:03;21.40;98.40
5130;DHT22;2583;50.946;6.954;2023-08-24T00:48:31;21.40;98.20
5130;DHT22;2583;50.946;6.954;2023-08-24T00:51:00;21.40;97.60
5130;DHT22;2583;50.946;6.954;2023-08-24T00:53:28;21.40;96.80
5130;DHT22;2583;50.946;6.954;2023-08-24T00:55:56;21.50;97.20
5130;DHT22;2583;50.946;6.954;2023-08-24T00:58:23;21.50;98.00
5130;DHT22;2583;50.946;6.954;2023-08-24T01:00:52;21.50;98.50
5130;DHT22;2583;50.946;6.954;2023-08-24T01:03:22;21.50;99.90
5130;DHT22;2583;50.946;6.954;2023-08-24T01:05:50;21.40;99.90
5130;DHT22;2583;50.946;6.954;2023-08-24T01:08:17;21.50;99.90
5130;DHT22;2583;50.946;6.954;2023-08-24T01:11:20;21.40;99.90
5130;DHT22;2583;50.946;6.954;2023-08-24T01:14:01;21.40;99.90
5130;DHT22;2583;50.946;6.954;2023-08-24T01:16:32;21.30;99.90
5130;DHT22;2583;50.946;6.954;2023-08-24T01:19:00;21.30;99.90
5130;DHT22;2583;50.946;6.954;2023-08-24T01:21:29;21.20;99.90
5130;DHT22;2583;50.946;6.954;2023-08-24T01:24:14;21.20;99.90
5130;DHT22;2583;50.946;6.954;2023-08-24T01:26:44;21.10;99.90
5130;DHT22;2583;50.946;6.954;2023-08-24T01:29:10;21.10;99.90
5130;DHT22;2583;50.946;6.954;2023-08-24T01:31:37;21.10;99.90
5130;DHT22;2583;50.946;6.954;2023-08-24T01:34:04;21.10;99.90
5130;DHT22;2583;50.946;6.954;2023-08-24T01:36:31;21.10;99.90
5130;DHT22;2583;50.946;6.954;2023-08-24T01:39:11;21.10;99.90
5130;DHT22;2583;50.946;6.954;2023-08-24T01:41:40;21.10;99.90
5130;DHT22;2583;50.946;6.954;2023-08-24T01:44:12;21.00;99.90
5130;DHT22;2583;50.946;6.954;2023-08-24T01:46:42;21.00;99.90
5130;DHT22;2583;50.946;6.954;2023-08-24T01:49:13;20.90;99.90
5130;DHT22;2583;50.946;6.954;2023-08-24T01:51:42;20.80;99.90
5130;DHT22;2583;50.946;6.954;2023-08-24T01:54:09;20.80;99.90
5130;DHT22;2583;50.946;6.954;2023-08-24T01:56:36;20.70;99.90
5130;DHT22;2583;50.946;6.954;2023-08-24T01:59:03;20.70;99.90
5130;DHT22;2583;50.946;6.954;2023-08-24T02:01:29;20.70;99.90
5130;DHT22;2583;50.946;6.954;2023-08-24T02:03:56;20.70;99.90
5130;DHT22;2583;50.946;6.954;2023-08-24T02:06:23;20.70;99.90
5130;DHT22;2583;50.946;6.954;2023-08-24T02:08:50;20.60;99.90
5130;DHT22;2583;50.946;6.954;2023-08-24T02:11:16;20.50;99.90
5130;DHT22;2583;50.946;6.954;2023-08-24T02:13:43;20.50;99.90
5130;DHT22;2583;50.946;6.954;2023-08-24T02:16:10;20.40;99.90
5130;DHT22;2583;50.946;6.954;2023-08-24T02:18:38;20.40;99.90
5130;DHT22;2583;50.946;6.954;2023-08-24T02:21:09;20.40;99.90
5130;DHT22;2583;50.946;6.954;2023-08-24T02:23:38;20.30;99.90
5130;DHT22;2583;50.946;6.954;2023-08-24T02:26:05;20.20;99.90
5130;DHT22;2583;50.946;6.954;2023-08-24T02:28:32;20.20;99.90
5130;DHT22;2583;50.946;6.954;2023-08-24T02:31:02;20.30;99.90
5130;DHT22;2583;50.946;6.954;2023-08-24T02:33:30;20.30;99.90
5130;DHT22;2583;50.946;6.954;2023-08-24T02:35:57;20.30;99.90
5130;DHT22;2583;50.946;6.954;2023-08-24T02:38:24;20.30;99.90
5130;DHT22;2583;50.946;6.954;2023-08-24T02:41:04;20.30;99.90
5130;DHT22;2583;50.946;6.954;2023-08-24T02:43:32;20.30;99.90
5130;DHT22;2583;50.946;6.954;2023-08-24T02:46:03;20.40;99.90
5130;DHT22;2583;50.946;6.954;2023-08-24T02:48:32;20.40;99.90
5130;DHT22;2583;50.946;6.954;2023-08-24T02:50:59;20.40;99.90
5130;DHT22;2583;50.946;6.954;2023-08-24T02:53:26;20.40;99.90
5130;DHT22;2583;50.946;6.954;2023-08-24T02:55:54;20.40;99.90
5130;DHT22;2583;50.946;6.954;2023-08-24T02:58:21;20.40;99.90
5130;DHT22;2583;50.946;6.954;2023-08-24T03:00:47;20.40;99.90
5130;DHT22;2583;50.946;6.954;2023-08-24T03:03:14;20.40;99.90
5130;DHT22;2583;50.946;6.954;2023-08-24T03:08:20;20.50;99.90
5130;DHT22;2583;50.946;6.954;2023-08-24T03:10:47;20.50;99.90
5130;DHT22;2583;50.946;6.954;2023-08-24T03:13:14;20.50;99.90
5130;DHT22;2583;50.946;6.954;2023-08-24T03:15:41;20.60;99.90
5130;DHT22;2583;50.946;6.954;2023-08-24T03:18:08;20.50;99.90
5130;DHT22;2583;50.946;6.954;2023-08-24T03:20:34;20.50;99.90
5130;DHT22;2583;50.946;6.954;2023-08-24T03:23:01;20.60;99.90
5130;DHT22;2583;50.946;6.954;2023-08-24T03:25:30;20.60;99.90
5130;DHT22;2583;50.946;6.954;2023-08-24T03:27:57;20.60;99.90
5130;DHT22;2583;50.946;6.954;2023-08-24T03:30:24;20.60;99.90
5130;DHT22;2583;50.946;6.954;2023-08-24T03:32:50;20.70;99.90
5130;DHT22;2583;50.946;6.954;2023-08-24T03:35:17;20.70;99.90
5130;DHT22;2583;50.946;6.954;2023-08-24T03:37:44;20.70;99.90
5130;DHT22;2583;50.946;6.954;2023-08-24T03:40:12;20.60;99.90
5130;DHT22;2583;50.946;6.954;2023-08-24T03:42:39;20.60;99.90
5130;DHT22;2583;50.946;6.954;2023-08-24T03:45:06;20.60;99.90
5130;DHT22;2583;50.946;6.954;2023-08-24T03:47:33;20.70;99.90
5130;DHT22;2583;50.946;6.954;2023-08-24T03:50:00;20.60;99.90
5130;DHT22;2583;50.946;6.954;2023-08-24T03:52:27;20.70;99.90
5130;DHT22;2583;50.946;6.954;2023-08-24T03:54:54;20.70;99.90
5130;DHT22;2583;50.946;6.954;2023-08-24T03:57:21;20.80;99.90
5130;DHT22;2583;50.946;6.954;2023-08-24T03:59:48;20.80;99.90
5130;DHT22;2583;50.946;6.954;2023-08-24T04:02:15;20.80;99.90
5130;DHT22;2583;50.946;6.954;2023-08-24T04:04:42;20.80;99.90
5130;DHT22;2583;50.946;6.954;2023-08-24T04:07:08;20.80;99.90
5130;DHT22;2583;50.946;6.954;2023-08-24T04:09:35;20.80;99.90
5130;DHT22;2583;50.946;6.954;2023-08-24T04:12:02;20.80;99.90
5130;DHT22;2583;50.946;6.954;2023-08-24T04:14:29;20.90;99.90
5130;DHT22;2583;50.946;6.954;2023-08-24T04:16:56;21.00;99.90
5130;DHT22;2583;50.946;6.954;2023-08-24T04:19:22;21.00;99.90
5130;DHT22;2583;50.946;6.954;2023-08-24T04:21:49;21.00;99.90
5130;DHT22;2583;50.946;6.954;2023-08-24T04:24:16;21.00;99.90
5130;DHT22;2583;50.946;6.954;2023-08-24T04:26:43;21.10;99.90
5130;DHT22;2583;50.946;6.954;2023-08-24T04:29:09;21.10;99.90
5130;DHT22;2583;50.946;6.954;2023-08-24T04:31:36;21.10;99.90
5130;DHT22;2583;50.946;6.954;2023-08-24T04:34:04;21.20;99.90
5130;DHT22;2583;50.946;6.954;2023-08-24T04:36:31;21.10;99.90
5130;DHT22;2583;50.946;6.954;2023-08-24T04:38:57;21.10;99.90
5130;DHT22;2583;50.946;6.954;2023-08-24T04:41:24;21.10;99.90
5130;DHT22;2583;50.946;6.954;2023-08-24T04:43:51;21.10;99.90
5130;DHT22;2583;50.946;6.954;2023-08-24T04:46:18;21.00;99.90
5130;DHT22;2583;50.946;6.954;2023-08-24T04:48:44;20.90;99.90
5130;DHT22;2583;50.946;6.954;2023-08-24T04:51:11;20.80;99.90
5130;DHT22;2583;50.946;6.954;2023-08-24T04:53:38;20.70;99.90
5130;DHT22;2583;50.946;6.954;2023-08-24T04:56:05;20.60;99.90
5130;DHT22;2583;50.946;6.954;2023-08-24T04:58:33;20.60;99.90
5130;DHT22;2583;50.946;6.954;2023-08-24T05:01:00;20.50;99.90
5130;DHT22;2583;50.946;6.954;2023-08-24T05:03:27;20.40;99.90
5130;DHT22;2583;50.946;6.954;2023-08-24T05:05:53;20.30;99.90
5130;DHT22;2583;50.946;6.954;2023-08-24T05:08:20;20.30;99.90
5130;DHT22;2583;50.946;6.954;2023-08-24T05:10:47;20.20;99.90
5130;DHT22;2583;50.946;6.954;2023-08-24T05:13:14;20.20;99.90
5130;DHT22;2583;50.946;6.954;2023-08-24T05:15:41;20.20;99.90
5130;DHT22;2583;50.946;6.954;2023-08-24T05:18:08;20.20;99.90
5130;DHT22;2583;50.946;6.954;2023-08-24T05:20:34;20.10;99.90
5130;DHT22;2583;50.946;6.954;2023-08-24T05:23:01;20.10;99.90
5130;DHT22;2583;50.946;6.954;2023-08-24T05:25:28;19.90;99.90
5130;DHT22;2583;50.946;6.954;2023-08-24T05:27:55;19.90;99.90
5130;DHT22;2583;50.946;6.954;2023-08-24T05:30:21;19.80;99.90
5130;DHT22;2583;50.946;6.954;2023-08-24T05:32:48;19.70;99.90
5130;DHT22;2583;50.946;6.954;2023-08-24T05:35:15;19.70;99.90
5130;DHT22;2583;50.946;6.954;2023-08-24T05:37:42;19.70;99.90
5130;DHT22;2583;50.946;6.954;2023-08-24T05:40:09;19.70;99.90
5130;DHT22;2583;50.946;6.954;2023-08-24T05:42:36;19.70;99.90
5130;DHT22;2583;50.946;6.954;2023-08-24T05:45:03;19.70;99.90
5130;DHT22;2583;50.946;6.954;2023-08-24T05:47:30;19.70;99.90
5130;DHT22;2583;50.946;6.954;2023-08-24T05:49:57;19.70;99.90
5130;DHT22;2583;50.946;6.954;2023-08-24T05:52:24;19.80;99.90
5130;DHT22;2583;50.946;6.954;2023-08-24T05:54:51;19.80;99.90
5130;DHT22;2583;50.946;6.954;2023-08-24T05:57:17;19.80;99.90
5130;DHT22;2583;50.946;6.954;2023-08-24T05:59:44;19.90;99.90
5130;DHT22;2583;50.946;6.954;2023-08-24T06:02:11;19.90;99.90
5130;DHT22;2583;50.946;6.954;2023-08-24T06:04:37;20.00;99.90
5130;DHT22;2583;50.946;6.954;2023-08-24T06:07:04;19.90;99.90
5130;DHT22;2583;50.946;6.954;2023-08-24T06:09:31;20.00;99.90
5130;DHT22;2583;50.946;6.954;2023-08-24T06:11:58;20.00;99.90
5130;DHT22;2583;50.946;6.954;2023-08-24T06:14:25;20.00;99.90
5130;DHT22;2583;50.946;6.954;2023-08-24T06:16:51;20.00;99.90
5130;DHT22;2583;50.946;6.954;2023-08-24T06:19:19;20.10;99.90
5130;DHT22;2583;50.946;6.954;2023-08-24T06:21:46;20.10;99.90
5130;DHT22;2583;50.946;6.954;2023-08-24T06:24:13;20.10;99.90
5130;DHT22;2583;50.946;6.954;2023-08-24T06:26:40;20.00;99.90
5130;DHT22;2583;50.946;6.954;2023-08-24T06:29:07;20.00;99.90
5130;DHT22;2583;50.946;6.954;2023-08-24T06:31:33;20.00;99.90
5130;DHT22;2583;50.946;6.954;2023-08-24T06:34:00;20.10;99.90
5130;DHT22;2583;50.946;6.954;2023-08-24T06:36:27;20.10;99.90
5130;DHT22;2583;50.946;6.954;2023-08-24T06:38:55;20.20;99.90
5130;DHT22;2583;50.946;6.954;2023-08-24T06:41:21;20.30;99.90
5130;DHT22;2583;50.946;6.954;2023-08-24T06:43:48;20.30;99.90
5130;DHT22;2583;50.946;6.954;2023-08-24T06:46:15;20.40;99.90
5130;DHT22;2583;50.946;6.954;2023-08-24T06:48:42;20.40;99.90
5130;DHT22;2583;50.946;6.954;2023-08-24T06:51:10;20.50;99.90
5130;DHT22;2583;50.946;6.954;2023-08-24T06:53:36;20.60;99.90
5130;DHT22;2583;50.946;6.954;2023-08-24T06:56:03;20.70;99.90
5130;DHT22;2583;50.946;6.954;2023-08-24T06:58:30;20.70;99.90
5130;DHT22;2583;50.946;6.954;2023-08-24T07:00:57;20.90;99.90
5130;DHT22;2583;50.946;6.954;2023-08-24T07:03:24;20.90;99.90
5130;DHT22;2583;50.946;6.954;2023-08-24T07:05:50;20.90;99.90
5130;DHT22;2583;50.946;6.954;2023-08-24T07:08:17;21.00;99.90
5130;DHT22;2583;50.946;6.954;2023-08-24T07:10:44;21.10;99.90
5130;DHT22;2583;50.946;6.954;2023-08-24T07:13:11;21.10;99.90
5130;DHT22;2583;50.946;6.954;2023-08-24T07:15:38;21.20;99.90
5130;DHT22;2583;50.946;6.954;2023-08-24T07:18:05;21.30;99.90
5130;DHT22;2583;50.946;6.954;2023-08-24T07:20:32;21.30;99.90
5130;DHT22;2583;50.946;6.954;2023-08-24T07:22:59;21.50;99.90
5130;DHT22;2583;50.946;6.954;2023-08-24T07:25:26;21.60;99.90
5130;DHT22;2583;50.946;6.954;2023-08-24T07:27:54;21.60;99.90
5130;DHT22;2583;50.946;6.954;2023-08-24T07:30:26;21.70;99.90
5130;DHT22;2583;50.946;6.954;2023-08-24T07:33:00;21.80;99.90
5130;DHT22;2583;50.946;6.954;2023-08-24T07:35:28;21.90;99.90
5130;DHT22;2583;50.946;6.954;2023-08-24T07:37:56;22.00;99.90
5130;DHT22;2583;50.946;6.954;2023-08-24T07:40:23;22.10;99.90
5130;DHT22;2583;50.946;6.954;2023-08-24T07:42:54;22.20;99.90
5130;DHT22;2583;50.946;6.954;2023-08-24T07:45:23;22.40;99.90
5130;DHT22;2583;50.946;6.954;2023-08-24T07:47:50;22.50;99.90
5130;DHT22;2583;50.946;6.954;2023-08-24T07:50:17;22.60;99.90
5130;DHT22;2583;50.946;6.954;2023-08-24T07:52:44;22.70;99.90
5130;DHT22;2583;50.946;6.954;2023-08-24T07:55:11;22.80;99.90
5130;DHT22;2583;50.946;6.954;2023-08-24T07:57:38;22.80;99.90
5130;DHT22;2583;50.946;6.954;2023-08-24T08:00:05;23.00;99.90
5130;DHT22;2583;50.946;6.954;2023-08-24T08:02:36;23.10;99.80
5130;DHT22;2583;50.946;6.954;2023-08-24T08:05:04;23.20;99.00
5130;DHT22;2583;50.946;6.954;2023-08-24T08:07:34;23.40;97.30
5130;DHT22;2583;50.946;6.954;2023-08-24T08:10:01;23.60;97.50
5130;DHT22;2583;50.946;6.954;2023-08-24T08:12:27;23.80;95.60
5130;DHT22;2583;50.946;6.954;2023-08-24T08:14:55;24.10;92.20
5130;DHT22;2583;50.946;6.954;2023-08-24T08:17:23;24.40;91.30
5130;DHT22;2583;50.946;6.954;2023-08-24T08:19:57;24.60;85.00
5130;DHT22;2583;50.946;6.954;2023-08-24T08:22:24;24.60;80.80
5130;DHT22;2583;50.946;6.954;2023-08-24T08:24:52;24.50;80.20
5130;DHT22;2583;50.946;6.954;2023-08-24T08:27:20;24.50;81.20
5130;DHT22;2583;50.946;6.954;2023-08-24T08:29:48;24.50;81.10
5130;DHT22;2583;50.946;6.954;2023-08-24T08:32:15;24.60;80.70
5130;DHT22;2583;50.946;6.954;2023-08-24T08:34:41;24.60;80.20
5130;DHT22;2583;50.946;6.954;2023-08-24T08:37:08;24.60;81.00
5130;DHT22;2583;50.946;6.954;2023-08-24T08:39:35;24.80;78.00
5130;DHT22;2583;50.946;6.954;2023-08-24T08:42:02;24.90;74.60
5130;DHT22;2583;50.946;6.954;2023-08-24T08:44:31;24.90;74.30
5130;DHT22;2583;50.946;6.954;2023-08-24T08:46:58;25.10;71.90
5130;DHT22;2583;50.946;6.954;2023-08-24T08:49:25;25.30;71.80
5130;DHT22;2583;50.946;6.954;2023-08-24T08:51:52;25.40;66.00
5130;DHT22;2583;50.946;6.954;2023-08-24T08:54:19;25.40;64.50
5130;DHT22;2583;50.946;6.954;2023-08-24T08:56:46;25.60;64.70
5130;DHT22;2583;50.946;6.954;2023-08-24T08:59:14;25.70;61.30
5130;DHT22;2583;50.946;6.954;2023-08-24T09:01:43;25.80;60.00
5130;DHT22;2583;50.946;6.954;2023-08-24T09:04:11;25.90;57.90
5130;DHT22;2583;50.946;6.954;2023-08-24T09:06:38;26.10;54.60
5130;DHT22;2583;50.946;6.954;2023-08-24T09:09:05;26.30;53.90
5130;DHT22;2583;50.946;6.954;2023-08-24T09:11:33;26.50;51.00
5130;DHT22;2583;50.946;6.954;2023-08-24T09:14:00;26.60;50.40
5130;DHT22;2583;50.946;6.954;2023-08-24T09:16:29;26.70;47.80
5130;DHT22;2583;50.946;6.954;2023-08-24T09:18:56;26.90;46.70
5130;DHT22;2583;50.946;6.954;2023-08-24T09:21:24;27.10;44.00
5130;DHT22;2583;50.946;6.954;2023-08-24T09:23:55;27.30;42.60
5130;DHT22;2583;50.946;6.954;2023-08-24T09:26:33;27.50;40.50
5130;DHT22;2583;50.946;6.954;2023-08-24T09:29:14;27.60;39.30
5130;DHT22;2583;50.946;6.954;2023-08-24T09:31:42;27.90;36.70
5130;DHT22;2583;50.946;6.954;2023-08-24T09:34:10;28.00;35.10
5130;DHT22;2583;50.946;6.954;2023-08-24T09:36:38;28.00;34.70
5130;DHT22;2583;50.946;6.954;2023-08-24T09:39:06;28.10;32.50
5130;DHT22;2583;50.946;6.954;2023-08-24T09:41:45;28.00;32.10
5130;DHT22;2583;50.946;6.954;2023-08-24T09:44:12;28.20;31.40
5130;DHT22;2583;50.946;6.954;2023-08-24T09:46:39;28.20;30.50
5130;DHT22;2583;50.946;6.954;2023-08-24T09:49:08;28.20;30.00
5130;DHT22;2583;50.946;6.954;2023-08-24T09:51:36;28.20;29.90
5130;DHT22;2583;50.946;6.954;2023-08-24T09:54:09;28.20;30.70
5130;DHT22;2583;50.946;6.954;2023-08-24T09:56:38;28.30;30.30
5130;DHT22;2583;50.946;6.954;2023-08-24T09:59:16;28.40;30.00
5130;DHT22;2583;50.946;6.954;2023-08-24T10:01:49;28.50;29.50
5130;DHT22;2583;50.946;6.954;2023-08-24T10:04:24;28.50;28.70
5130;DHT22;2583;50.946;6.954;2023-08-24T10:07:05;28.50;28.50
5130;DHT22;2583;50.946;6.954;2023-08-24T10:12:20;28.70;28.70
5130;DHT22;2583;50.946;6.954;2023-08-24T10:15:01;28.70;28.30
5130;DHT22;2583;50.946;6.954;2023-08-24T10:17:32;28.80;27.70
5130;DHT22;2583;50.946;6.954;2023-08-24T10:20:00;28.80;27.50
5130;DHT22;2583;50.946;6.954;2023-08-24T10:22:36;28.80;27.40
5130;DHT22;2583;50.946;6.954;2023-08-24T10:25:04;28.80;27.60
5130;DHT22;2583;50.946;6.954;2023-08-24T10:27:32;28.80;27.70
5130;DHT22;2583;50.946;6.954;2023-08-24T10:29:59;28.90;27.90
5130;DHT22;2583;50.946;6.954;2023-08-24T10:32:26;29.00;28.30
5130;DHT22;2583;50.946;6.954;2023-08-24T10:34:54;29.00;27.70
5130;DHT22;2583;50.946;6.954;2023-08-24T10:37:27;29.00;26.50
5130;DHT22;2583;50.946;6.954;2023-08-24T10:39:54;29.00;24.60
5130;DHT22;2583;50.946;6.954;2023-08-24T10:42:21;29.00;23.30
5130;DHT22;2583;50.946;6.954;2023-08-24T10:44:48;29.10;23.10
5130;DHT22;2583;50.946;6.954;2023-08-24T10:52:23;29.20;22.30
5130;DHT22;2583;50.946;6.954;2023-08-24T10:54:52;29.20;22.00
5130;DHT22;2583;50.946;6.954;2023-08-24T11:05:20;29.30;17.30
5130;DHT22;2583;50.946;6.954;2023-08-24T11:08:08;29.30;17.40
5130;DHT22;2583;50.946;6.954;2023-08-24T11:10:55;29.20;16.60
5130;DHT22;2583;50.946;6.954;2023-08-24T11:13:23;29.10;17.00
5130;DHT22;2583;50.946;6.954;2023-08-24T11:15:51;29.10;17.60
5130;DHT22;2583;50.946;6.954;2023-08-24T11:18:27;29.00;17.70
5130;DHT22;2583;50.946;6.954;2023-08-24T11:21:05;29.00;18.50
5130;DHT22;2583;50.946;6.954;2023-08-24T11:23:32;29.10;18.00
5130;DHT22;2583;50.946;6.954;2023-08-24T11:26:00;29.00;18.10
5130;DHT22;2583;50.946;6.954;2023-08-24T11:28:28;28.90;18.10
5130;DHT22;2583;50.946;6.954;2023-08-24T11:30:57;28.90;18.30
5130;DHT22;2583;50.946;6.954;2023-08-24T11:35:56;28.60;18.80
5130;DHT22;2583;50.946;6.954;2023-08-24T11:38:23;28.50;19.10
5130;DHT22;2583;50.946;6.954;2023-08-24T11:40:50;28.40;19.40
5130;DHT22;2583;50.946;6.954;2023-08-24T11:43:26;28.40;19.60
5130;DHT22;2583;50.946;6.954;2023-08-24T11:45:54;28.40;20.00
5130;DHT22;2583;50.946;6.954;2023-08-24T11:48:25;28.30;20.20
5130;DHT22;2583;50.946;6.954;2023-08-24T11:50:52;28.30;20.70
5130;DHT22;2583;50.946;6.954;2023-08-24T11:53:22;28.30;20.50
5130;DHT22;2583;50.946;6.954;2023-08-24T11:55:53;28.30;21.00
5130;DHT22;2583;50.946;6.954;2023-08-24T11:58:31;28.20;21.50
5130;DHT22;2583;50.946;6.954;2023-08-24T12:00:58;28.30;21.30
5130;DHT22;2583;50.946;6.954;2023-08-24T12:03:25;28.40;21.50
5130;DHT22;2583;50.946;6.954;2023-08-24T12:05:52;28.50;21.40
5130;DHT22;2583;50.946;6.954;2023-08-24T12:08:19;28.60;21.70
5130;DHT22;2583;50.946;6.954;2023-08-24T12:10:45;28.50;21.40
5130;DHT22;2583;50.946;6.954;2023-08-24T12:13:12;28.50;21.90
5130;DHT22;2583;50.946;6.954;2023-08-24T12:15:40;28.50;21.90
5130;DHT22;2583;50.946;6.954;2023-08-24T12:18:09;28.40;21.90
5130;DHT22;2583;50.946;6.954;2023-08-24T12:20:36;28.40;22.20
5130;DHT22;2583;50.946;6.954;2023-08-24T12:23:03;28.40;22.60
5130;DHT22;2583;50.946;6.954;2023-08-24T12:25:30;28.50;23.10
5130;DHT22;2583;50.946;6.954;2023-08-24T12:28:15;28.40;24.10
5130;DHT22;2583;50.946;6.954;2023-08-24T12:30:52;28.30;24.50
5130;DHT22;2583;50.946;6.954;2023-08-24T12:33:27;28.10;25.10
5130;DHT22;2583;50.946;6.954;2023-08-24T12:35:54;28.00;25.30
5130;DHT22;2583;50.946;6.954;2023-08-24T12:38:23;28.00;27.30
5130;DHT22;2583;50.946;6.954;2023-08-24T12:40:50;27.90;28.40
5130;DHT22;2583;50.946;6.954;2023-08-24T12:43:17;27.80;31.50
5130;DHT22;2583;50.946;6.954;2023-08-24T12:45:44;27.80;32.30
5130;DHT22;2583;50.946;6.954;2023-08-24T12:48:11;27.70;33.50
5130;DHT22;2583;50.946;6.954;2023-08-24T12:50:38;27.60;37.60
5130;DHT22;2583;50.946;6.954;2023-08-24T12:53:05;27.40;49.20
5130;DHT22;2583;50.946;6.954;2023-08-24T12:55:39;27.10;71.60
5130;DHT22;2583;50.946;6.954;2023-08-24T12:58:09;26.90;86.00
5130;DHT22;2583;50.946;6.954;2023-08-24T13:00:36;26.80;97.00
5130;DHT22;2583;50.946;6.954;2023-08-24T13:03:03;26.60;97.00
5130;DHT22;2583;50.946;6.954;2023-08-24T13:05:30;26.50;97.60
5130;DHT22;2583;50.946;6.954;2023-08-24T13:07:58;26.30;99.90
5130;DHT22;2583;50.946;6.954;2023-08-24T13:10:25;26.30;99.50
5130;DHT22;2583;50.946;6.954;2023-08-24T13:12:51;26.20;99.90
5130;DHT22;2583;50.946;6.954;2023-08-24T13:15:18;26.20;99.90
5130;DHT22;2583;50.946;6.954;2023-08-24T13:17:46;26.10;99.00
5130;DHT22;2583;50.946;6.954;2023-08-24T13:20:13;26.10;99.40
5130;DHT22;2583;50.946;6.954;2023-08-24T13:22:40;26.10;99.90
5130;DHT22;2583;50.946;6.954;2023-08-24T13:25:08;26.00;99.10
5130;DHT22;2583;50.946;6.954;2023-08-24T13:27:35;26.00;98.30
5130;DHT22;2583;50.946;6.954;2023-08-24T13:30:03;26.00;99.70
5130;DHT22;2583;50.946;6.954;2023-08-24T13:32:30;26.00;99.90
5130;DHT22;2583;50.946;6.954;2023-08-24T13:34:57;26.10;98.30
5130;DHT22;2583;50.946;6.954;2023-08-24T13:37:24;26.10;96.40
5130;DHT22;2583;50.946;6.954;2023-08-24T13:39:51;26.10;94.80
5130;DHT22;2583;50.946;6.954;2023-08-24T13:42:18;26.10;94.00
5130;DHT22;2583;50.946;6.954;2023-08-24T13:44:45;26.10;91.00
5130;DHT22;2583;50.946;6.954;2023-08-24T13:47:13;26.10;91.30
5130;DHT22;2583;50.946;6.954;2023-08-24T13:49:40;26.10;90.00
5130;DHT22;2583;50.946;6.954;2023-08-24T13:52:07;26.10;90.90
5130;DHT22;2583;50.946;6.954;2023-08-24T13:54:35;26.10;90.10
5130;DHT22;2583;50.946;6.954;2023-08-24T13:57:01;26.00;89.10
5130;DHT22;2583;50.946;6.954;2023-08-24T13:59:28;26.10;88.50
5130;DHT22;2583;50.946;6.954;2023-08-24T14:01:55;26.00;82.50
5130;DHT22;2583;50.946;6.954;2023-08-24T14:04:22;26.00;86.30
5130;DHT22;2583;50.946;6.954;2023-08-24T14:06:49;26.00;89.50
5130;DHT22;2583;50.946;6.954;2023-08-24T14:09:16;26.00;86.50
5130;DHT22;2583;50.946;6.954;2023-08-24T14:11:43;26.00;85.60
5130;DHT22;2583;50.946;6.954;2023-08-24T14:14:10;26.00;90.90
5130;DHT22;2583;50.946;6.954;2023-08-24T14:16:37;25.90;87.40
5130;DHT22;2583;50.946;6.954;2023-08-24T14:19:04;25.80;91.40
5130;DHT22;2583;50.946;6.954;2023-08-24T14:21:32;25.80;92.80
5130;DHT22;2583;50.946;6.954;2023-08-24T14:24:01;25.80;93.50
5130;DHT22;2583;50.946;6.954;2023-08-24T14:26:29;25.80;93.70
5130;DHT22;2583;50.946;6.954;2023-08-24T14:28:57;25.70;92.40
5130;DHT22;2583;50.946;6.954;2023-08-24T14:31:29;25.60;92.40
5130;DHT22;2583;50.946;6.954;2023-08-24T14:33:56;25.60;93.60
5130;DHT22;2583;50.946;6.954;2023-08-24T14:36:24;25.50;92.90
5130;DHT22;2583;50.946;6.954;2023-08-24T14:38:51;25.40;93.40
5130;DHT22;2583;50.946;6.954;2023-08-24T14:41:21;25.30;94.40
5130;DHT22;2583;50.946;6.954;2023-08-24T14:43:47;25.20;94.20
5130;DHT22;2583;50.946;6.954;2023-08-24T14:46:14;25.10;95.90
5130;DHT22;2583;50.946;6.954;2023-08-24T14:48:42;25.00;97.90
5130;DHT22;2583;50.946;6.954;2023-08-24T14:51:08;24.90;99.40
5130;DHT22;2583;50.946;6.954;2023-08-24T14:53:35;24.80;99.90
5130;DHT22;2583;50.946;6.954;2023-08-24T14:56:02;24.70;99.90
5130;DHT22;2583;50.946;6.954;2023-08-24T14:58:29;24.60;99.90
5130;DHT22;2583;50.946;6.954;2023-08-24T15:00:56;24.60;99.90
5130;DHT22;2583;50.946;6.954;2023-08-24T15:03:24;24.50;99.90
5130;DHT22;2583;50.946;6.954;2023-08-24T15:06:04;24.40;99.90
5130;DHT22;2583;50.946;6.954;2023-08-24T15:08:32;24.20;99.90
5130;DHT22;2583;50.946;6.954;2023-08-24T15:11:01;24.20;99.90
5130;DHT22;2583;50.946;6.954;2023-08-24T15:13:29;24.10;99.90
5130;DHT22;2583;50.946;6.954;2023-08-24T15:15:57;23.90;99.90
5130;DHT22;2583;50.946;6.954;2023-08-24T15:18:26;23.80;99.90
5130;DHT22;2583;50.946;6.954;2023-08-24T15:20:53;23.70;99.90
5130;DHT22;2583;50.946;6.954;2023-08-24T15:23:25;23.70;99.90
5130;DHT22;2583;50.946;6.954;2023-08-24T15:25:56;23.70;99.90
5130;DHT22;2583;50.946;6.954;2023-08-24T15:28:24;23.60;99.90
5130;DHT22;2583;50.946;6.954;2023-08-24T15:30:51;23.60;99.90
5130;DHT22;2583;50.946;6.954;2023-08-24T15:33:19;23.50;99.90
5130;DHT22;2583;50.946;6.954;2023-08-24T15:35:47;23.50;99.90
5130;DHT22;2583;50.946;6.954;2023-08-24T15:38:13;23.40;99.90
5130;DHT22;2583;50.946;6.954;2023-08-24T15:40:40;23.40;99.90
5130;DHT22;2583;50.946;6.954;2023-08-24T15:43:11;23.40;99.90
5130;DHT22;2583;50.946;6.954;2023-08-24T15:45:38;23.30;99.90
5130;DHT22;2583;50.946;6.954;2023-08-24T15:48:05;23.20;99.90
5130;DHT22;2583;50.946;6.954;2023-08-24T15:50:32;23.10;99.90
5130;DHT22;2583;50.946;6.954;2023-08-24T15:52:58;23.00;99.90
5130;DHT22;2583;50.946;6.954;2023-08-24T15:55:30;23.00;99.90
5130;DHT22;2583;50.946;6.954;2023-08-24T15:58:01;23.00;99.90
5130;DHT22;2583;50.946;6.954;2023-08-24T16:00:29;23.00;99.90
5130;DHT22;2583;50.946;6.954;2023-08-24T16:02:56;22.90;99.90
5130;DHT22;2583;50.946;6.954;2023-08-24T16:05:23;22.90;99.90
5130;DHT22;2583;50.946;6.954;2023-08-24T16:07:52;22.90;99.90
5130;DHT22;2583;50.946;6.954;2023-08-24T16:10:21;22.90;99.90
5130;DHT22;2583;50.946;6.954;2023-08-24T16:12:48;22.80;99.90
5130;DHT22;2583;50.946;6.954;2023-08-24T16:15:15;22.80;99.90
5130;DHT22;2583;50.946;6.954;2023-08-24T16:17:43;22.80;99.90
5130;DHT22;2583;50.946;6.954;2023-08-24T16:20:11;22.80;99.90
5130;DHT22;2583;50.946;6.954;2023-08-24T16:22:38;22.80;99.90
5130;DHT22;2583;50.946;6.954;2023-08-24T16:25:06;22.80;99.90
5130;DHT22;2583;50.946;6.954;2023-08-24T16:27:33;22.80;99.90
5130;DHT22;2583;50.946;6.954;2023-08-24T16:30:03;22.80;99.90